sensor_id;sensor_type;location;lat;lon;timestamp;P1;durP1;ratioP1;P2;durP2;ratioP2
63688;SDS011;54895;40.928;14.480;2023-07-02T00:01:08;16.80;;;4.07;;
63688;SDS011;54895;40.928;14.480;2023-07-02T00:03:34;9.10;;;3.00;;
63688;SDS011;54895;40.928;14.480;2023-07-02T00:06:01;14.60;;;4.72;;
63688;SDS011;54895;40.928;14.480;2023-07-02T00:08:28;12.95;;;3.90;;
63688;SDS011;54895;40.928;14.480;2023-07-02T00:10:54;13.40;;;4.10;;
63688;SDS011;54895;40.928;14.480;2023-07-02T00:13:20;14.82;;;4.30;;
63688;SDS011;54895;40.928;14.480;2023-07-02T00:15:47;15.43;;;3.90;;
63688;SDS011;54895;40.928;14.480;2023-07-02T00:22:01;10.43;;;4.45;;
63688;SDS011;54895;40.928;14.480;2023-07-02T00:24:28;13.60;;;4.28;;
63688;SDS011;54895;40.928;14.480;2023-07-02T00:26:55;11.50;;;4.75;;
63688;SDS011;54895;40.928;14.480;2023-07-02T00:29:21;15.10;;;5.05;;
63688;SDS011;54895;40.928;14.480;2023-07-02T00:31:48;16.02;;;5.10;;
63688;SDS011;54895;40.928;14.480;2023-07-02T00:34:14;12.30;;;4.68;;
63688;SDS011;54895;40.928;14.480;2023-07-02T00:36:41;14.63;;;4.50;;
63688;SDS011;54895;40.928;14.480;2023-07-02T00:39:26;10.63;;;4.70;;
63688;SDS011;54895;40.928;14.480;2023-07-02T00:41:52;11.18;;;4.60;;
63688;SDS011;54895;40.928;14.480;2023-07-02T00:44:18;10.73;;;3.85;;
63688;SDS011;54895;40.928;14.480;2023-07-02T00:46:45;10.60;;;3.75;;
63688;SDS011;54895;40.928;14.480;2023-07-02T00:49:12;12.23;;;4.75;;
63688;SDS011;54895;40.928;14.480;2023-07-02T00:51:38;16.63;;;3.92;;
63688;SDS011;54895;40.928;14.480;2023-07-02T00:54:04;13.15;;;4.10;;
63688;SDS011;54895;40.928;14.480;2023-07-02T00:56:33;14.68;;;4.78;;
63688;SDS011;54895;40.928;14.480;2023-07-02T00:58:59;17.35;;;4.72;;
63688;SDS011;54895;40.928;14.480;2023-07-02T01:01:27;16.52;;;4.38;;
63688;SDS011;54895;40.928;14.480;2023-07-02T01:03:58;16.80;;;4.20;;
63688;SDS011;54895;40.928;14.480;2023-07-02T01:06:31;10.38;;;4.28;;
63688;SDS011;54895;40.928;14.480;2023-07-02T01:09:00;19.30;;;4.10;;
63688;SDS011;54895;40.928;14.480;2023-07-02T01:14:04;14.45;;;4.30;;
63688;SDS011;54895;40.928;14.480;2023-07-02T01:16:35;9.95;;;3.40;;
63688;SDS011;54895;40.928;14.480;2023-07-02T01:22:13;13.40;;;4.45;;
63688;SDS011;54895;40.928;14.480;2023-07-02T01:24:40;13.30;;;4.03;;
63688;SDS011;54895;40.928;14.480;2023-07-02T01:27:07;12.05;;;4.25;;
63688;SDS011;54895;40.928;14.480;2023-07-02T01:29:34;12.05;;;4.10;;
63688;SDS011;54895;40.928;14.480;2023-07-02T01:32:03;12.40;;;4.07;;
63688;SDS011;54895;40.928;14.480;2023-07-02T01:34:30;9.90;;;4.40;;
63688;SDS011;54895;40.928;14.480;2023-07-02T01:36:56;15.60;;;4.28;;
63688;SDS011;54895;40.928;14.480;2023-07-02T01:39:23;12.80;;;4.18;;
63688;SDS011;54895;40.928;14.480;2023-07-02T01:41:53;17.30;;;4.75;;
63688;SDS011;54895;40.928;14.480;2023-07-02T01:44:21;11.02;;;4.70;;
63688;SDS011;54895;40.928;14.480;2023-07-02T01:46:48;11.05;;;4.75;;
63688;SDS011;54895;40.928;14.480;2023-07-02T01:49:15;12.82;;;4.40;;
63688;SDS011;54895;40.928;14.480;2023-07-02T01:51:49;12.63;;;4.60;;
63688;SDS011;54895;40.928;14.480;2023-07-02T01:54:16;14.52;;;4.65;;
63688;SDS011;54895;40.928;14.480;2023-07-02T01:56:43;11.98;;;4.28;;
63688;SDS011;54895;40.928;14.480;2023-07-02T01:59:09;14.40;;;3.83;;
63688;SDS011;54895;40.928;14.480;2023-07-02T02:01:37;14.80;;;4.20;;
63688;SDS011;54895;40.928;14.480;2023-07-02T02:04:07;12.80;;;4.40;;
63688;SDS011;54895;40.928;14.480;2023-07-02T02:06:33;15.00;;;4.47;;
63688;SDS011;54895;40.928;14.480;2023-07-02T02:09:00;13.40;;;4.35;;
63688;SDS011;54895;40.928;14.480;2023-07-02T02:11:30;16.27;;;4.75;;
63688;SDS011;54895;40.928;14.480;2023-07-02T02:13:57;13.85;;;4.43;;
63688;SDS011;54895;40.928;14.480;2023-07-02T02:16:24;12.65;;;4.03;;
63688;SDS011;54895;40.928;14.480;2023-07-02T02:22:56;13.48;;;3.95;;
63688;SDS011;54895;40.928;14.480;2023-07-02T02:25:22;16.02;;;5.00;;
63688;SDS011;54895;40.928;14.480;2023-07-02T02:27:49;10.60;;;4.40;;
63688;SDS011;54895;40.928;14.480;2023-07-02T02:30:15;10.77;;;4.05;;
63688;SDS011;54895;40.928;14.480;2023-07-02T02:32:42;11.45;;;4.43;;
63688;SDS011;54895;40.928;14.480;2023-07-02T02:35:11;14.40;;;4.18;;
63688;SDS011;54895;40.928;14.480;2023-07-02T02:37:38;11.68;;;4.40;;
63688;SDS011;54895;40.928;14.480;2023-07-02T02:40:07;13.63;;;5.22;;
63688;SDS011;54895;40.928;14.480;2023-07-02T02:42:36;10.00;;;4.07;;
63688;SDS011;54895;40.928;14.480;2023-07-02T02:45:04;14.65;;;3.97;;
63688;SDS011;54895;40.928;14.480;2023-07-02T02:47:31;14.40;;;4.65;;
63688;SDS011;54895;40.928;14.480;2023-07-02T02:49:58;15.40;;;4.20;;
63688;SDS011;54895;40.928;14.480;2023-07-02T02:52:25;12.25;;;4.10;;
63688;SDS011;54895;40.928;14.480;2023-07-02T02:54:52;14.75;;;4.40;;
63688;SDS011;54895;40.928;14.480;2023-07-02T02:57:21;12.48;;;4.85;;
63688;SDS011;54895;40.928;14.480;2023-07-02T02:59:47;12.90;;;4.22;;
63688;SDS011;54895;40.928;14.480;2023-07-02T03:02:14;13.68;;;3.90;;
63688;SDS011;54895;40.928;14.480;2023-07-02T03:04:40;14.15;;;4.80;;
63688;SDS011;54895;40.928;14.480;2023-07-02T03:07:07;14.07;;;5.20;;
63688;SDS011;54895;40.928;14.480;2023-07-02T03:09:33;14.70;;;4.65;;
63688;SDS011;54895;40.928;14.480;2023-07-02T03:12:00;12.50;;;4.72;;
63688;SDS011;54895;40.928;14.480;2023-07-02T03:14:26;12.57;;;4.82;;
63688;SDS011;54895;40.928;14.480;2023-07-02T03:16:53;15.25;;;4.47;;
63688;SDS011;54895;40.928;14.480;2023-07-02T03:22:31;14.48;;;4.50;;
63688;SDS011;54895;40.928;14.480;2023-07-02T03:24:58;13.50;;;4.88;;
63688;SDS011;54895;40.928;14.480;2023-07-02T03:27:24;13.13;;;4.25;;
63688;SDS011;54895;40.928;14.480;2023-07-02T03:29:53;11.88;;;4.80;;
63688;SDS011;54895;40.928;14.480;2023-07-02T03:32:19;12.43;;;4.88;;
63688;SDS011;54895;40.928;14.480;2023-07-02T03:34:46;15.60;;;4.53;;
63688;SDS011;54895;40.928;14.480;2023-07-02T03:37:12;14.18;;;4.75;;
63688;SDS011;54895;40.928;14.480;2023-07-02T03:39:38;15.75;;;4.22;;
63688;SDS011;54895;40.928;14.480;2023-07-02T03:42:05;11.05;;;4.22;;
63688;SDS011;54895;40.928;14.480;2023-07-02T03:44:31;13.50;;;4.22;;
63688;SDS011;54895;40.928;14.480;2023-07-02T03:46:58;13.48;;;4.60;;
63688;SDS011;54895;40.928;14.480;2023-07-02T03:49:24;14.95;;;4.00;;
63688;SDS011;54895;40.928;14.480;2023-07-02T03:51:50;12.02;;;3.95;;
63688;SDS011;54895;40.928;14.480;2023-07-02T03:54:17;16.92;;;4.03;;
63688;SDS011;54895;40.928;14.480;2023-07-02T03:56:43;12.98;;;4.35;;
63688;SDS011;54895;40.928;14.480;2023-07-02T03:59:10;17.38;;;4.25;;
63688;SDS011;54895;40.928;14.480;2023-07-02T04:01:36;12.23;;;4.57;;
63688;SDS011;54895;40.928;14.480;2023-07-02T04:04:02;13.20;;;4.28;;
63688;SDS011;54895;40.928;14.480;2023-07-02T04:06:29;11.13;;;4.30;;
63688;SDS011;54895;40.928;14.480;2023-07-02T04:08:55;12.48;;;4.05;;
63688;SDS011;54895;40.928;14.480;2023-07-02T04:11:22;12.18;;;4.00;;
63688;SDS011;54895;40.928;14.480;2023-07-02T04:13:48;14.65;;;4.22;;
63688;SDS011;54895;40.928;14.480;2023-07-02T04:16:14;9.30;;;4.30;;
63688;SDS011;54895;40.928;14.480;2023-07-02T04:22:28;14.88;;;4.35;;
63688;SDS011;54895;40.928;14.480;2023-07-02T04:24:54;12.88;;;4.18;;
63688;SDS011;54895;40.928;14.480;2023-07-02T04:27:21;13.45;;;4.28;;
63688;SDS011;54895;40.928;14.480;2023-07-02T04:29:48;11.70;;;4.20;;
63688;SDS011;54895;40.928;14.480;2023-07-02T04:32:15;10.70;;;4.15;;
63688;SDS011;54895;40.928;14.480;2023-07-02T04:34:41;15.50;;;4.28;;
63688;SDS011;54895;40.928;14.480;2023-07-02T04:37:08;10.55;;;4.53;;
63688;SDS011;54895;40.928;14.480;2023-07-02T04:39:35;13.35;;;4.55;;
63688;SDS011;54895;40.928;14.480;2023-07-02T04:42:02;12.30;;;4.40;;
63688;SDS011;54895;40.928;14.480;2023-07-02T04:44:29;11.77;;;4.07;;
63688;SDS011;54895;40.928;14.480;2023-07-02T04:46:58;18.08;;;4.68;;
63688;SDS011;54895;40.928;14.480;2023-07-02T04:49:27;12.45;;;4.22;;
63688;SDS011;54895;40.928;14.480;2023-07-02T04:51:53;12.13;;;4.63;;
63688;SDS011;54895;40.928;14.480;2023-07-02T04:54:20;16.65;;;4.70;;
63688;SDS011;54895;40.928;14.480;2023-07-02T04:56:47;13.95;;;4.65;;
63688;SDS011;54895;40.928;14.480;2023-07-02T04:59:14;17.02;;;4.65;;
63688;SDS011;54895;40.928;14.480;2023-07-02T05:01:41;12.13;;;4.45;;
63688;SDS011;54895;40.928;14.480;2023-07-02T05:04:09;11.73;;;4.18;;
63688;SDS011;54895;40.928;14.480;2023-07-02T05:06:37;14.10;;;4.13;;
63688;SDS011;54895;40.928;14.480;2023-07-02T05:09:03;11.98;;;3.85;;
63688;SDS011;54895;40.928;14.480;2023-07-02T05:11:30;14.20;;;4.53;;
63688;SDS011;54895;40.928;14.480;2023-07-02T05:13:56;11.90;;;4.30;;
63688;SDS011;54895;40.928;14.480;2023-07-02T05:16:23;11.30;;;4.13;;
63688;SDS011;54895;40.928;14.480;2023-07-02T05:22:41;11.38;;;3.47;;
63688;SDS011;54895;40.928;14.480;2023-07-02T05:25:08;13.82;;;4.10;;
63688;SDS011;54895;40.928;14.480;2023-07-02T05:27:35;14.73;;;4.72;;
63688;SDS011;54895;40.928;14.480;2023-07-02T05:30:02;12.30;;;3.50;;
63688;SDS011;54895;40.928;14.480;2023-07-02T05:32:29;10.23;;;3.97;;
63688;SDS011;54895;40.928;14.480;2023-07-02T05:34:56;13.32;;;3.97;;
63688;SDS011;54895;40.928;14.480;2023-07-02T05:37:23;12.98;;;4.35;;
63688;SDS011;54895;40.928;14.480;2023-07-02T05:39:50;13.80;;;4.35;;
63688;SDS011;54895;40.928;14.480;2023-07-02T05:42:17;13.13;;;4.20;;
63688;SDS011;54895;40.928;14.480;2023-07-02T05:44:44;10.18;;;3.90;;
63688;SDS011;54895;40.928;14.480;2023-07-02T05:47:10;10.77;;;3.80;;
63688;SDS011;54895;40.928;14.480;2023-07-02T05:49:37;10.63;;;4.00;;
63688;SDS011;54895;40.928;14.480;2023-07-02T05:52:04;15.57;;;4.30;;
63688;SDS011;54895;40.928;14.480;2023-07-02T05:54:31;10.15;;;4.03;;
63688;SDS011;54895;40.928;14.480;2023-07-02T05:56:58;12.48;;;4.05;;
63688;SDS011;54895;40.928;14.480;2023-07-02T05:59:25;11.90;;;3.95;;
63688;SDS011;54895;40.928;14.480;2023-07-02T06:01:51;10.45;;;3.72;;
63688;SDS011;54895;40.928;14.480;2023-07-02T06:04:18;11.32;;;3.55;;
63688;SDS011;54895;40.928;14.480;2023-07-02T06:06:45;12.13;;;3.65;;
63688;SDS011;54895;40.928;14.480;2023-07-02T06:09:12;7.75;;;3.33;;
63688;SDS011;54895;40.928;14.480;2023-07-02T06:11:39;12.65;;;4.00;;
63688;SDS011;54895;40.928;14.480;2023-07-02T06:14:05;10.80;;;3.60;;
63688;SDS011;54895;40.928;14.480;2023-07-02T06:16:33;11.73;;;4.13;;
63688;SDS011;54895;40.928;14.480;2023-07-02T06:22:43;11.73;;;3.70;;
63688;SDS011;54895;40.928;14.480;2023-07-02T06:25:13;10.45;;;3.72;;
63688;SDS011;54895;40.928;14.480;2023-07-02T06:27:39;11.75;;;3.80;;
63688;SDS011;54895;40.928;14.480;2023-07-02T06:30:06;8.98;;;3.40;;
63688;SDS011;54895;40.928;14.480;2023-07-02T06:32:33;9.25;;;3.17;;
63688;SDS011;54895;40.928;14.480;2023-07-02T06:34:59;11.88;;;3.17;;
63688;SDS011;54895;40.928;14.480;2023-07-02T06:37:26;13.57;;;4.03;;
63688;SDS011;54895;40.928;14.480;2023-07-02T06:39:52;12.63;;;3.80;;
63688;SDS011;54895;40.928;14.480;2023-07-02T06:42:19;9.70;;;3.42;;
63688;SDS011;54895;40.928;14.480;2023-07-02T06:44:45;10.90;;;3.78;;
63688;SDS011;54895;40.928;14.480;2023-07-02T06:47:11;14.23;;;4.07;;
63688;SDS011;54895;40.928;14.480;2023-07-02T06:49:38;8.98;;;3.85;;
63688;SDS011;54895;40.928;14.480;2023-07-02T06:52:04;10.70;;;3.55;;
63688;SDS011;54895;40.928;14.480;2023-07-02T06:54:31;11.07;;;3.55;;
63688;SDS011;54895;40.928;14.480;2023-07-02T06:56:57;12.07;;;3.88;;
63688;SDS011;54895;40.928;14.480;2023-07-02T06:59:24;11.40;;;3.58;;
63688;SDS011;54895;40.928;14.480;2023-07-02T07:01:50;6.75;;;3.00;;
63688;SDS011;54895;40.928;14.480;2023-07-02T07:04:17;9.63;;;3.42;;
63688;SDS011;54895;40.928;14.480;2023-07-02T07:06:43;7.20;;;3.30;;
63688;SDS011;54895;40.928;14.480;2023-07-02T07:09:10;9.52;;;3.40;;
63688;SDS011;54895;40.928;14.480;2023-07-02T07:11:36;7.25;;;2.90;;
63688;SDS011;54895;40.928;14.480;2023-07-02T07:14:03;8.88;;;3.28;;
63688;SDS011;54895;40.928;14.480;2023-07-02T07:16:29;8.40;;;3.00;;
63688;SDS011;54895;40.928;14.480;2023-07-02T07:22:39;10.45;;;3.38;;
63688;SDS011;54895;40.928;14.480;2023-07-02T07:25:06;8.32;;;3.38;;
63688;SDS011;54895;40.928;14.480;2023-07-02T07:27:33;10.77;;;3.45;;
63688;SDS011;54895;40.928;14.480;2023-07-02T07:29:59;11.50;;;3.08;;
63688;SDS011;54895;40.928;14.480;2023-07-02T07:32:26;8.70;;;3.10;;
63688;SDS011;54895;40.928;14.480;2023-07-02T07:34:53;9.40;;;3.40;;
63688;SDS011;54895;40.928;14.480;2023-07-02T07:37:19;9.15;;;3.13;;
63688;SDS011;54895;40.928;14.480;2023-07-02T07:39:46;6.38;;;2.75;;
63688;SDS011;54895;40.928;14.480;2023-07-02T07:42:13;6.32;;;3.03;;
63688;SDS011;54895;40.928;14.480;2023-07-02T07:44:41;9.00;;;3.00;;
63688;SDS011;54895;40.928;14.480;2023-07-02T07:47:07;9.80;;;2.70;;
63688;SDS011;54895;40.928;14.480;2023-07-02T07:49:34;8.85;;;3.38;;
63688;SDS011;54895;40.928;14.480;2023-07-02T07:52:00;6.80;;;2.90;;
63688;SDS011;54895;40.928;14.480;2023-07-02T07:54:26;8.52;;;3.28;;
63688;SDS011;54895;40.928;14.480;2023-07-02T07:56:53;7.45;;;2.80;;
63688;SDS011;54895;40.928;14.480;2023-07-02T07:59:19;7.35;;;2.58;;
63688;SDS011;54895;40.928;14.480;2023-07-02T08:01:46;7.78;;;3.17;;
63688;SDS011;54895;40.928;14.480;2023-07-02T08:04:12;8.18;;;3.40;;
63688;SDS011;54895;40.928;14.480;2023-07-02T08:06:39;9.27;;;3.40;;
63688;SDS011;54895;40.928;14.480;2023-07-02T08:09:05;7.78;;;2.97;;
63688;SDS011;54895;40.928;14.480;2023-07-02T08:11:32;10.07;;;3.78;;
63688;SDS011;54895;40.928;14.480;2023-07-02T08:14:00;9.88;;;3.30;;
63688;SDS011;54895;40.928;14.480;2023-07-02T08:16:26;9.80;;;3.60;;
63688;SDS011;54895;40.928;14.480;2023-07-02T08:25:24;6.35;;;2.72;;
63688;SDS011;54895;40.928;14.480;2023-07-02T08:27:53;8.70;;;3.08;;
63688;SDS011;54895;40.928;14.480;2023-07-02T08:30:19;7.00;;;2.92;;
63688;SDS011;54895;40.928;14.480;2023-07-02T08:32:46;5.70;;;2.80;;
63688;SDS011;54895;40.928;14.480;2023-07-02T08:35:13;9.63;;;3.17;;
63688;SDS011;54895;40.928;14.480;2023-07-02T08:37:40;7.43;;;2.95;;
63688;SDS011;54895;40.928;14.480;2023-07-02T08:40:15;8.90;;;3.05;;
63688;SDS011;54895;40.928;14.480;2023-07-02T08:42:44;5.13;;;2.72;;
63688;SDS011;54895;40.928;14.480;2023-07-02T08:45:13;6.18;;;2.72;;
63688;SDS011;54895;40.928;14.480;2023-07-02T08:47:43;6.10;;;2.97;;
63688;SDS011;54895;40.928;14.480;2023-07-02T08:50:14;5.90;;;2.80;;
63688;SDS011;54895;40.928;14.480;2023-07-02T08:52:41;11.45;;;3.40;;
63688;SDS011;54895;40.928;14.480;2023-07-02T08:55:08;6.75;;;2.55;;
63688;SDS011;54895;40.928;14.480;2023-07-02T08:57:35;5.80;;;2.65;;
63688;SDS011;54895;40.928;14.480;2023-07-02T09:00:08;6.15;;;3.10;;
63688;SDS011;54895;40.928;14.480;2023-07-02T09:02:36;8.52;;;2.97;;
63688;SDS011;54895;40.928;14.480;2023-07-02T09:05:02;5.75;;;2.90;;
63688;SDS011;54895;40.928;14.480;2023-07-02T09:10:52;6.00;;;2.30;;
63688;SDS011;54895;40.928;14.480;2023-07-02T09:13:18;4.80;;;2.70;;
63688;SDS011;54895;40.928;14.480;2023-07-02T09:15:44;5.43;;;2.63;;
63688;SDS011;54895;40.928;14.480;2023-07-02T09:18:15;7.82;;;3.00;;
63688;SDS011;54895;40.928;14.480;2023-07-02T09:20:57;5.50;;;2.80;;
63688;SDS011;54895;40.928;14.480;2023-07-02T09:23:33;7.53;;;2.60;;
63688;SDS011;54895;40.928;14.480;2023-07-02T09:26:05;6.63;;;3.00;;
63688;SDS011;54895;40.928;14.480;2023-07-02T09:28:33;6.80;;;2.78;;
63688;SDS011;54895;40.928;14.480;2023-07-02T09:31:04;7.78;;;3.30;;
63688;SDS011;54895;40.928;14.480;2023-07-02T09:33:31;7.93;;;3.05;;
63688;SDS011;54895;40.928;14.480;2023-07-02T09:35:57;6.07;;;3.10;;
63688;SDS011;54895;40.928;14.480;2023-07-02T09:38:24;7.00;;;2.95;;
63688;SDS011;54895;40.928;14.480;2023-07-02T09:40:55;6.90;;;2.80;;
63688;SDS011;54895;40.928;14.480;2023-07-02T09:43:22;6.80;;;2.78;;
63688;SDS011;54895;40.928;14.480;2023-07-02T09:45:50;7.85;;;2.72;;
63688;SDS011;54895;40.928;14.480;2023-07-02T09:48:18;6.13;;;2.80;;
63688;SDS011;54895;40.928;14.480;2023-07-02T09:50:49;6.82;;;2.80;;
63688;SDS011;54895;40.928;14.480;2023-07-02T09:53:18;9.80;;;3.40;;
63688;SDS011;54895;40.928;14.480;2023-07-02T09:55:44;6.72;;;3.30;;
63688;SDS011;54895;40.928;14.480;2023-07-02T09:58:11;5.18;;;2.70;;
63688;SDS011;54895;40.928;14.480;2023-07-02T10:00:37;4.05;;;2.50;;
63688;SDS011;54895;40.928;14.480;2023-07-02T10:03:05;4.97;;;2.80;;
63688;SDS011;54895;40.928;14.480;2023-07-02T10:05:32;8.27;;;2.95;;
63688;SDS011;54895;40.928;14.480;2023-07-02T10:08:11;4.80;;;2.80;;
63688;SDS011;54895;40.928;14.480;2023-07-02T10:10:39;5.57;;;2.80;;
63688;SDS011;54895;40.928;14.480;2023-07-02T10:13:05;6.95;;;2.97;;
63688;SDS011;54895;40.928;14.480;2023-07-02T10:15:32;11.15;;;4.05;;
63688;SDS011;54895;40.928;14.480;2023-07-02T10:18:03;6.07;;;3.20;;
63688;SDS011;54895;40.928;14.480;2023-07-02T10:23:37;8.13;;;3.35;;
63688;SDS011;54895;40.928;14.480;2023-07-02T10:26:14;6.25;;;3.03;;
63688;SDS011;54895;40.928;14.480;2023-07-02T10:28:57;6.65;;;3.20;;
63688;SDS011;54895;40.928;14.480;2023-07-02T10:31:56;7.80;;;3.60;;
63688;SDS011;54895;40.928;14.480;2023-07-02T10:34:34;8.55;;;3.25;;
63688;SDS011;54895;40.928;14.480;2023-07-02T10:37:01;8.55;;;3.00;;
63688;SDS011;54895;40.928;14.480;2023-07-02T10:39:32;8.40;;;3.47;;
63688;SDS011;54895;40.928;14.480;2023-07-02T10:42:07;8.00;;;3.33;;
63688;SDS011;54895;40.928;14.480;2023-07-02T10:47:33;9.88;;;3.65;;
63688;SDS011;54895;40.928;14.480;2023-07-02T10:50:17;8.57;;;3.40;;
63688;SDS011;54895;40.928;14.480;2023-07-02T10:52:48;9.45;;;3.90;;
63688;SDS011;54895;40.928;14.480;2023-07-02T10:55:24;6.85;;;3.40;;
63688;SDS011;54895;40.928;14.480;2023-07-02T10:58:01;9.10;;;3.85;;
63688;SDS011;54895;40.928;14.480;2023-07-02T11:00:47;7.63;;;3.60;;
63688;SDS011;54895;40.928;14.480;2023-07-02T11:03:22;9.07;;;3.53;;
63688;SDS011;54895;40.928;14.480;2023-07-02T11:05:51;8.05;;;3.10;;
63688;SDS011;54895;40.928;14.480;2023-07-02T11:08:19;11.15;;;3.90;;
63688;SDS011;54895;40.928;14.480;2023-07-02T11:10:50;7.15;;;3.22;;
63688;SDS011;54895;40.928;14.480;2023-07-02T11:13:17;9.20;;;3.50;;
63688;SDS011;54895;40.928;14.480;2023-07-02T11:15:46;7.05;;;3.67;;
63688;SDS011;54895;40.928;14.480;2023-07-02T11:18:13;8.77;;;3.30;;
63688;SDS011;54895;40.928;14.480;2023-07-02T11:23:34;6.60;;;3.40;;
63688;SDS011;54895;40.928;14.480;2023-07-02T11:26:01;7.28;;;3.50;;
63688;SDS011;54895;40.928;14.480;2023-07-02T11:28:29;7.05;;;3.58;;
63688;SDS011;54895;40.928;14.480;2023-07-02T11:30:57;8.20;;;3.58;;
63688;SDS011;54895;40.928;14.480;2023-07-02T11:33:37;6.95;;;3.30;;
63688;SDS011;54895;40.928;14.480;2023-07-02T11:36:05;8.18;;;2.95;;
63688;SDS011;54895;40.928;14.480;2023-07-02T11:38:35;10.98;;;3.50;;
63688;SDS011;54895;40.928;14.480;2023-07-02T11:41:03;7.80;;;3.70;;
63688;SDS011;54895;40.928;14.480;2023-07-02T11:43:30;5.90;;;3.22;;
63688;SDS011;54895;40.928;14.480;2023-07-02T11:45:56;6.55;;;3.35;;
63688;SDS011;54895;40.928;14.480;2023-07-02T11:48:23;5.82;;;2.92;;
63688;SDS011;54895;40.928;14.480;2023-07-02T11:50:49;7.13;;;3.60;;
63688;SDS011;54895;40.928;14.480;2023-07-02T11:53:15;8.68;;;3.45;;
63688;SDS011;54895;40.928;14.480;2023-07-02T11:55:42;6.85;;;2.92;;
63688;SDS011;54895;40.928;14.480;2023-07-02T11:58:08;5.00;;;3.20;;
63688;SDS011;54895;40.928;14.480;2023-07-02T12:00:34;7.00;;;3.42;;
63688;SDS011;54895;40.928;14.480;2023-07-02T12:03:00;6.70;;;3.33;;
63688;SDS011;54895;40.928;14.480;2023-07-02T12:05:27;8.48;;;3.20;;
63688;SDS011;54895;40.928;14.480;2023-07-02T12:07:53;8.38;;;3.22;;
63688;SDS011;54895;40.928;14.480;2023-07-02T12:10:21;6.90;;;2.92;;
63688;SDS011;54895;40.928;14.480;2023-07-02T12:12:47;6.88;;;3.55;;
63688;SDS011;54895;40.928;14.480;2023-07-02T12:15:13;9.35;;;3.05;;
63688;SDS011;54895;40.928;14.480;2023-07-02T12:17:39;9.30;;;3.80;;
63688;SDS011;54895;40.928;14.480;2023-07-02T12:20:06;7.47;;;3.33;;
63688;SDS011;54895;40.928;14.480;2023-07-02T12:22:32;6.30;;;3.20;;
63688;SDS011;54895;40.928;14.480;2023-07-02T12:24:59;8.18;;;3.17;;
63688;SDS011;54895;40.928;14.480;2023-07-02T12:27:25;5.85;;;3.00;;
63688;SDS011;54895;40.928;14.480;2023-07-02T12:29:53;5.20;;;2.67;;
63688;SDS011;54895;40.928;14.480;2023-07-02T12:32:20;6.85;;;3.20;;
63688;SDS011;54895;40.928;14.480;2023-07-02T12:34:46;6.38;;;3.05;;
63688;SDS011;54895;40.928;14.480;2023-07-02T12:37:13;5.47;;;3.08;;
63688;SDS011;54895;40.928;14.480;2023-07-02T12:39:43;5.97;;;3.15;;
63688;SDS011;54895;40.928;14.480;2023-07-02T12:42:09;5.60;;;2.70;;
63688;SDS011;54895;40.928;14.480;2023-07-02T12:44:36;5.18;;;2.70;;
63688;SDS011;54895;40.928;14.480;2023-07-02T12:47:02;5.50;;;2.67;;
63688;SDS011;54895;40.928;14.480;2023-07-02T12:49:29;6.05;;;2.70;;
63688;SDS011;54895;40.928;14.480;2023-07-02T12:51:55;5.72;;;2.78;;
63688;SDS011;54895;40.928;14.480;2023-07-02T12:54:22;4.68;;;2.88;;
63688;SDS011;54895;40.928;14.480;2023-07-02T12:56:48;4.35;;;2.67;;
63688;SDS011;54895;40.928;14.480;2023-07-02T12:59:15;6.25;;;2.75;;
63688;SDS011;54895;40.928;14.480;2023-07-02T13:01:42;4.95;;;2.53;;
63688;SDS011;54895;40.928;14.480;2023-07-02T13:04:10;5.30;;;2.45;;
63688;SDS011;54895;40.928;14.480;2023-07-02T13:06:37;5.75;;;2.50;;
63688;SDS011;54895;40.928;14.480;2023-07-02T13:09:06;6.00;;;2.78;;
63688;SDS011;54895;40.928;14.480;2023-07-02T13:11:33;4.63;;;3.05;;
63688;SDS011;54895;40.928;14.480;2023-07-02T13:14:00;5.35;;;2.53;;
63688;SDS011;54895;40.928;14.480;2023-07-02T13:16:26;6.25;;;2.55;;
63688;SDS011;54895;40.928;14.480;2023-07-02T13:18:53;5.75;;;2.60;;
63688;SDS011;54895;40.928;14.480;2023-07-02T13:21:22;4.05;;;2.63;;
63688;SDS011;54895;40.928;14.480;2023-07-02T13:23:50;5.38;;;2.80;;
63688;SDS011;54895;40.928;14.480;2023-07-02T13:26:20;5.25;;;2.88;;
63688;SDS011;54895;40.928;14.480;2023-07-02T13:28:47;5.53;;;2.78;;
63688;SDS011;54895;40.928;14.480;2023-07-02T13:31:14;7.82;;;3.03;;
63688;SDS011;54895;40.928;14.480;2023-07-02T13:33:42;5.18;;;2.40;;
63688;SDS011;54895;40.928;14.480;2023-07-02T13:36:10;4.63;;;3.03;;
63688;SDS011;54895;40.928;14.480;2023-07-02T13:38:38;6.32;;;2.83;;
63688;SDS011;54895;40.928;14.480;2023-07-02T13:41:05;5.97;;;2.70;;
63688;SDS011;54895;40.928;14.480;2023-07-02T13:43:32;5.00;;;2.85;;
63688;SDS011;54895;40.928;14.480;2023-07-02T13:46:00;5.72;;;2.65;;
63688;SDS011;54895;40.928;14.480;2023-07-02T13:48:27;4.25;;;2.75;;
63688;SDS011;54895;40.928;14.480;2023-07-02T13:50:55;7.22;;;2.58;;
63688;SDS011;54895;40.928;14.480;2023-07-02T13:53:22;5.03;;;3.00;;
63688;SDS011;54895;40.928;14.480;2023-07-02T13:55:50;5.55;;;2.80;;
63688;SDS011;54895;40.928;14.480;2023-07-02T13:58:17;3.72;;;2.33;;
63688;SDS011;54895;40.928;14.480;2023-07-02T14:00:45;4.55;;;2.58;;
63688;SDS011;54895;40.928;14.480;2023-07-02T14:03:12;4.55;;;2.78;;
63688;SDS011;54895;40.928;14.480;2023-07-02T14:05:40;4.40;;;2.53;;
63688;SDS011;54895;40.928;14.480;2023-07-02T14:08:08;5.07;;;2.58;;
63688;SDS011;54895;40.928;14.480;2023-07-02T14:10:36;3.75;;;2.22;;
63688;SDS011;54895;40.928;14.480;2023-07-02T14:13:03;4.80;;;2.55;;
63688;SDS011;54895;40.928;14.480;2023-07-02T14:15:31;3.22;;;2.33;;
63688;SDS011;54895;40.928;14.480;2023-07-02T14:17:59;4.85;;;2.55;;
63688;SDS011;54895;40.928;14.480;2023-07-02T14:23:38;5.63;;;2.72;;
63688;SDS011;54895;40.928;14.480;2023-07-02T14:26:05;5.55;;;2.60;;
63688;SDS011;54895;40.928;14.480;2023-07-02T14:28:31;3.42;;;2.33;;
63688;SDS011;54895;40.928;14.480;2023-07-02T14:30:58;4.05;;;2.10;;
63688;SDS011;54895;40.928;14.480;2023-07-02T14:33:26;3.95;;;2.50;;
63688;SDS011;54895;40.928;14.480;2023-07-02T14:35:53;5.38;;;2.97;;
63688;SDS011;54895;40.928;14.480;2023-07-02T14:38:19;5.00;;;2.50;;
63688;SDS011;54895;40.928;14.480;2023-07-02T14:40:48;5.55;;;3.20;;
63688;SDS011;54895;40.928;14.480;2023-07-02T14:43:15;3.70;;;2.17;;
63688;SDS011;54895;40.928;14.480;2023-07-02T14:45:49;4.60;;;2.55;;
63688;SDS011;54895;40.928;14.480;2023-07-02T14:48:16;5.85;;;2.28;;
63688;SDS011;54895;40.928;14.480;2023-07-02T14:50:53;4.68;;;2.63;;
63688;SDS011;54895;40.928;14.480;2023-07-02T14:53:22;7.38;;;2.72;;
63688;SDS011;54895;40.928;14.480;2023-07-02T14:55:49;6.13;;;2.70;;
63688;SDS011;54895;40.928;14.480;2023-07-02T14:58:16;4.43;;;2.55;;
63688;SDS011;54895;40.928;14.480;2023-07-02T15:00:47;5.00;;;2.72;;
63688;SDS011;54895;40.928;14.480;2023-07-02T15:03:15;5.07;;;2.45;;
63688;SDS011;54895;40.928;14.480;2023-07-02T15:05:45;5.03;;;2.50;;
63688;SDS011;54895;40.928;14.480;2023-07-02T15:08:13;4.22;;;2.50;;
63688;SDS011;54895;40.928;14.480;2023-07-02T15:10:44;5.43;;;2.22;;
63688;SDS011;54895;40.928;14.480;2023-07-02T15:13:18;8.27;;;3.03;;
63688;SDS011;54895;40.928;14.480;2023-07-02T15:15:45;6.57;;;2.83;;
63688;SDS011;54895;40.928;14.480;2023-07-02T15:18:12;6.80;;;2.80;;
63688;SDS011;54895;40.928;14.480;2023-07-02T15:23:57;3.92;;;2.55;;
63688;SDS011;54895;40.928;14.480;2023-07-02T15:26:24;6.88;;;2.55;;
63688;SDS011;54895;40.928;14.480;2023-07-02T15:28:51;4.75;;;2.80;;